עמוד ראשי
METAR-TAF:

METAR-TAF

שדות תעופה :

קיימן בראק, איי קיימן

קו רוחב: 19-41-13N, קו אורך: 079-52-58W, גובה: 2מטר

תצפית מזג אוויר נוכחית

הדו"ח נערך לפני 1 שעות ו 4דקות, בשעה 12:00 UTC
רוח 9קשר מכיוון מזרח/דרום-מזרח
טמפרטורת 30 צלסיוס
לחות 79%
לחץ 1013 hPa
ראות 10 קילומטר או יותר
עננים פזורים בגובה 1600רגל

METAR: MWCB 131200Z 12009KT 9999 SCT016 30/26 Q1013

זמן: 08:04 (13:04 UTC)

תחזית

הדו"ח נערך לפני 2 שעות ו 4דקות, בשעה 11:00 UTC
תחזית בתוקף מ 13 ב 12 UTC עד 14 ב 12 UTC
רוח 12קשר מכיוון דרום-מזרח
ראות: 9000מטר
עננים פזורים בגובה 1600רגל
עננים פזורים בגובה 3000רגל
ממטרי גשם
יעשה מ
13 ב 18 UTC עד 13 ב 20 UTC
ראות 10 קילומטר או יותר
עננים פזורים בגובה 1800רגל
עננים פזורים בגובה 3000רגל
יעשה מ
14 ב 04 UTC עד 14 ב 06 UTC
רוח 7קשר מכיוון דרום/דרום-מזרח
ראות 10 קילומטר או יותר
עננים פזורים בגובה 1800רגל

TAF: MWCB 131100Z 1312/1412 14012KT 9000 SHRA SCT016 SCT030 BECMG 1318/1320 9999 SCT018 SCT030 BECMG 1404/1406 16007KT 9999 SCT018

תצפיות ותחזיות מזג אוויר לגבי יותר מ- 4,000 שדות תעופה ברחבי העולם. דוחות METAR ו- TAF.

התחנות הזמינות מסומנות בנקודות צהובות ואדומות על גבי המפה.

העבר את העכבר לנקודה הצבעונית על מנת לראות את שם התחנה.

לאחר מכן, לחץ כדי לראות את תוכן ואת תחזיות מזג האוויר.

כדי לשנות את המפה: לחץ על הכפתורים הירוקים עם הפלוס השחור כדי להתקרב; על הכפתור הירוק עם המקף כדי להתרחק; או בחיצים הירוקים למפות סמוכות.


METAR-TAF: